Time;durP1;ratioP1;P1;durP2;ratioP2;P2;SDS_P1;SDS_P2;PMS_P1;PMS_P2;Temp;Humidity;BMP_temperature;BMP_pressure;BME280_temperature;BME280_humidity;BME280_pressure;Samples;Min_cycle;Max_cycle;Signal;HPM_P1;HPM_P2
2023/07/02 00:00:19;;;;;;;13.30;6.50;;;13.80;98.20;;;;;;5033789;28;20055;-71
2023/07/02 00:02:44;;;;;;;10.95;5.95;;;13.80;98.20;;;;;;5029711;28;20321;-71
2023/07/02 00:05:10;;;;;;;15.50;6.53;;;13.90;98.10;;;;;;5030599;28;20111;-69
2023/07/02 00:07:36;;;;;;;12.98;6.47;;;13.90;98.10;;;;;;5031732;28;20057;-70
2023/07/02 00:10:02;;;;;;;10.65;6.20;;;14.00;98.00;;;;;;5029118;28;20033;-70
2023/07/02 00:12:27;;;;;;;11.32;5.93;;;14.00;97.90;;;;;;5032035;28;20049;-70
2023/07/02 00:14:53;;;;;;;12.15;6.20;;;14.00;97.90;;;;;;5029640;28;20337;-69
2023/07/02 00:17:19;;;;;;;10.73;6.05;;;14.00;97.90;;;;;;5035124;28;20032;-70
2023/07/02 00:19:46;;;;;;;10.57;5.60;;;14.00;97.90;;;;;;5028761;28;20037;-70
2023/07/02 00:22:11;;;;;;;12.43;6.28;;;14.00;98.10;;;;;;5032458;28;20044;-70
2023/07/02 00:24:37;;;;;;;12.43;5.68;;;14.10;98.00;;;;;;5024189;28;20073;-70
2023/07/02 00:27:03;;;;;;;9.00;5.88;;;14.10;97.90;;;;;;5031477;28;20030;-69
2023/07/02 00:29:29;;;;;;;11.35;5.88;;;14.00;97.90;;;;;;5023030;28;20117;-70
2023/07/02 00:31:54;;;;;;;12.90;5.90;;;14.10;97.90;;;;;;5029897;28;20158;-70
2023/07/02 00:34:20;;;;;;;11.30;5.13;;;14.10;97.90;;;;;;5031829;28;20108;-70
2023/07/02 00:36:46;;;;;;;11.23;5.68;;;14.10;97.80;;;;;;5028896;28;20501;-71
2023/07/02 00:39:12;;;;;;;13.05;5.90;;;14.10;98.00;;;;;;5028466;28;20036;-71
2023/07/02 00:41:38;;;;;;;9.00;5.45;;;14.10;97.90;;;;;;5029904;28;20403;-70
2023/07/02 00:44:03;;;;;;;11.27;5.45;;;14.10;97.90;;;;;;5025310;28;20105;-70
2023/07/02 00:46:30;;;;;;;11.73;5.07;;;14.10;98.10;;;;;;5026716;28;20540;-70
2023/07/02 00:48:56;;;;;;;11.27;5.18;;;14.00;98.00;;;;;;5028132;28;20049;-70
2023/07/02 00:51:24;;;;;;;10.80;5.07;;;14.00;98.00;;;;;;5032074;28;20033;-70
2023/07/02 00:53:52;;;;;;;11.10;5.70;;;13.90;98.10;;;;;;5028343;28;20107;-69
2023/07/02 00:56:18;;;;;;;13.98;5.82;;;13.80;98.10;;;;;;5028389;28;20045;-69
2023/07/02 00:58:50;;;;;;;9.75;5.50;;;13.70;98.30;;;;;;5021664;28;20417;-69
2023/07/02 01:01:24;;;;;;;15.73;6.30;;;13.70;98.30;;;;;;5029629;28;20048;-70
2023/07/02 01:03:53;;;;;;;12.30;6.10;;;13.60;98.50;;;;;;5030428;28;20446;-70
2023/07/02 01:06:24;;;;;;;15.80;5.65;;;13.60;98.60;;;;;;5027426;28;20411;-71
2023/07/02 01:08:54;;;;;;;14.88;6.50;;;13.60;98.60;;;;;;5027621;28;20036;-70
2023/07/02 01:11:22;;;;;;;16.30;6.07;;;13.60;98.60;;;;;;5026741;28;20068;-70
2023/07/02 01:13:49;;;;;;;16.10;6.45;;;13.60;98.60;;;;;;5027609;28;20090;-69
2023/07/02 01:16:15;;;;;;;13.07;6.28;;;13.60;98.60;;;;;;5024124;28;20033;-69
2023/07/02 01:18:40;;;;;;;14.82;6.22;;;13.70;98.60;;;;;;5027014;28;20026;-70
2023/07/02 01:21:06;;;;;;;15.20;6.22;;;13.70;98.40;;;;;;5024064;28;20033;-70
2023/07/02 01:23:33;;;;;;;17.65;6.90;;;13.70;98.40;;;;;;5025759;28;20385;-70
2023/07/02 01:25:59;;;;;;;11.77;6.63;;;13.70;98.40;;;;;;4998018;28;20117;-70
2023/07/02 01:28:25;;;;;;;10.90;6.28;;;13.80;98.30;;;;;;5017739;28;20350;-70
2023/07/02 01:30:51;;;;;;;15.55;6.00;;;13.80;98.30;;;;;;5021827;28;20041;-70
2023/07/02 01:33:16;;;;;;;14.45;6.15;;;13.80;98.30;;;;;;5021101;28;20034;-71
2023/07/02 01:35:42;;;;;;;18.15;6.43;;;13.90;98.20;;;;;;5020135;28;21106;-69
2023/07/02 01:38:07;;;;;;;12.77;6.30;;;13.80;98.10;;;;;;5025014;28;20476;-69
2023/07/02 01:40:33;;;;;;;17.45;6.10;;;13.90;98.10;;;;;;5019876;28;21136;-69
2023/07/02 01:42:58;;;;;;;15.75;6.25;;;13.90;98.00;;;;;;5025238;28;20108;-70
2023/07/02 01:45:25;;;;;;;12.23;5.30;;;13.90;97.90;;;;;;5022817;28;20032;-70
2023/07/02 01:47:50;;;;;;;12.18;5.40;;;13.90;97.90;;;;;;5023866;28;20476;-70
2023/07/02 01:50:16;;;;;;;14.52;5.35;;;14.00;97.80;;;;;;5022321;28;20030;-69
2023/07/02 01:52:41;;;;;;;12.65;5.68;;;14.00;97.80;;;;;;5026239;28;20434;-70
2023/07/02 01:55:07;;;;;;;9.88;4.88;;;14.00;97.80;;;;;;5024773;28;20127;-71
2023/07/02 01:57:33;;;;;;;9.85;5.30;;;14.00;97.80;;;;;;5026034;28;20053;-69
2023/07/02 01:59:58;;;;;;;11.40;5.43;;;14.00;97.70;;;;;;5024892;28;20041;-70
2023/07/02 02:02:24;;;;;;;11.23;5.38;;;14.00;97.80;;;;;;5023413;28;20467;-69
2023/07/02 02:04:49;;;;;;;12.30;5.72;;;14.00;97.70;;;;;;5029064;28;20133;-70
2023/07/02 02:07:15;;;;;;;9.75;5.47;;;14.00;97.70;;;;;;5024583;28;20774;-70
2023/07/02 02:09:40;;;;;;;11.75;5.78;;;14.10;97.70;;;;;;5026928;28;20038;-69
2023/07/02 02:12:06;;;;;;;13.15;5.22;;;14.00;97.70;;;;;;5027055;28;20099;-71
2023/07/02 02:14:32;;;;;;;17.60;5.70;;;14.00;97.50;;;;;;5024365;28;20057;-70
2023/07/02 02:16:57;;;;;;;11.27;5.50;;;14.10;97.50;;;;;;5029159;28;20041;-70
2023/07/02 02:19:23;;;;;;;11.43;5.57;;;14.10;97.40;;;;;;5027392;28;20068;-70
2023/07/02 02:21:48;;;;;;;12.60;5.15;;;14.10;97.40;;;;;;5026363;28;20394;-70
2023/07/02 02:24:14;;;;;;;9.43;5.07;;;14.10;97.30;;;;;;5022617;28;20112;-70
2023/07/02 02:26:39;;;;;;;12.95;5.55;;;14.10;97.30;;;;;;5018529;28;20409;-69
2023/07/02 02:29:05;;;;;;;9.13;5.47;;;14.10;97.40;;;;;;5024655;28;20163;-70
2023/07/02 02:31:30;;;;;;;8.30;4.75;;;14.10;97.40;;;;;;5025479;28;20029;-70
2023/07/02 02:33:56;;;;;;;9.90;4.80;;;14.10;97.30;;;;;;5027489;28;20445;-70
2023/07/02 02:36:21;;;;;;;11.55;5.28;;;14.10;97.20;;;;;;5030402;28;20110;-70
2023/07/02 02:38:47;;;;;;;12.23;5.28;;;14.00;97.30;;;;;;5029154;28;20054;-69
2023/07/02 02:41:12;;;;;;;10.90;5.18;;;14.00;97.30;;;;;;5025398;28;20082;-71
2023/07/02 02:43:42;;;;;;;11.05;4.95;;;14.00;97.30;;;;;;5023863;28;20456;-70
2023/07/02 02:46:08;;;;;;;13.02;4.80;;;13.90;97.30;;;;;;5031145;28;20370;-70
2023/07/02 02:48:33;;;;;;;8.68;5.40;;;14.00;97.20;;;;;;5032192;28;20031;-69
2023/07/02 02:50:59;;;;;;;15.65;5.47;;;13.90;97.00;;;;;;5030148;28;20062;-69
2023/07/02 02:53:24;;;;;;;13.25;5.43;;;13.90;97.00;;;;;;5026945;28;20030;-70
2023/07/02 02:55:50;;;;;;;12.27;5.43;;;13.90;97.10;;;;;;5027170;28;20037;-71
2023/07/02 02:58:15;;;;;;;13.38;5.88;;;13.80;97.10;;;;;;5026675;28;20091;-70
2023/07/02 03:00:44;;;;;;;10.88;5.80;;;13.80;97.20;;;;;;5017499;28;20076;-70
2023/07/02 03:03:10;;;;;;;13.85;5.85;;;13.80;97.10;;;;;;5018415;28;20028;-69
2023/07/02 03:05:35;;;;;;;9.18;5.13;;;13.70;97.20;;;;;;5024330;28;20033;-70
2023/07/02 03:08:01;;;;;;;13.52;5.35;;;13.70;97.10;;;;;;5024445;28;20037;-69
2023/07/02 03:10:28;;;;;;;14.98;5.90;;;13.70;97.10;;;;;;5027669;28;20060;-70
2023/07/02 03:12:53;;;;;;;11.45;5.70;;;13.80;96.90;;;;;;5032211;28;20461;-69
2023/07/02 03:15:19;;;;;;;11.23;6.00;;;13.70;96.90;;;;;;5021454;28;20116;-69
2023/07/02 03:17:44;;;;;;;14.48;5.18;;;13.70;96.80;;;;;;5006482;28;20365;-70
2023/07/02 03:20:10;;;;;;;13.80;5.72;;;13.60;97.10;;;;;;5021995;28;20029;-70
2023/07/02 03:22:36;;;;;;;12.60;5.82;;;13.60;97.20;;;;;;5017103;28;20476;-71
2023/07/02 03:25:01;;;;;;;16.40;6.20;;;13.60;97.10;;;;;;5003752;28;20100;-70
2023/07/02 03:27:27;;;;;;;14.68;5.82;;;13.60;97.20;;;;;;5023489;28;20450;-70
2023/07/02 03:29:52;;;;;;;12.85;5.57;;;13.60;97.10;;;;;;5023616;28;20038;-70
2023/07/02 03:32:18;;;;;;;14.85;6.35;;;13.60;97.10;;;;;;5022704;28;20112;-69
2023/07/02 03:34:43;;;;;;;13.30;5.50;;;13.60;96.90;;;;;;5025517;28;20044;-70
2023/07/02 03:37:09;;;;;;;12.50;5.68;;;13.60;96.90;;;;;;5023629;28;20033;-71
2023/07/02 03:39:34;;;;;;;9.65;5.43;;;13.60;97.00;;;;;;5021186;28;20112;-70
2023/07/02 03:42:00;;;;;;;11.15;6.05;;;13.60;97.00;;;;;;5029321;28;20044;-70
2023/07/02 03:44:25;;;;;;;14.00;6.32;;;13.60;96.80;;;;;;5023106;28;20358;-70
2023/07/02 03:46:51;;;;;;;14.77;6.28;;;13.60;96.70;;;;;;5022625;28;20032;-70
2023/07/02 03:49:16;;;;;;;11.68;6.10;;;13.60;96.70;;;;;;5023100;28;20170;-70
2023/07/02 03:51:42;;;;;;;12.52;5.82;;;13.60;96.70;;;;;;5022347;28;20152;-70
2023/07/02 03:54:08;;;;;;;13.15;6.18;;;13.60;96.50;;;;;;5021389;28;20441;-70
2023/07/02 03:56:34;;;;;;;17.80;6.15;;;13.70;96.10;;;;;;5015658;28;20071;-70
2023/07/02 03:58:59;;;;;;;17.60;6.65;;;13.90;95.50;;;;;;5017360;28;20017;-70
2023/07/02 04:01:25;;;;;;;17.50;6.43;;;13.80;95.10;;;;;;5015468;28;20034;-70
2023/07/02 04:03:52;;;;;;;18.35;6.22;;;13.90;94.70;;;;;;5021252;28;20109;-70
2023/07/02 04:06:17;;;;;;;13.45;5.80;;;13.90;94.60;;;;;;5019006;28;20033;-69
2023/07/02 04:08:44;;;;;;;13.23;5.70;;;13.90;94.40;;;;;;5022561;28;20030;-69
2023/07/02 04:11:10;;;;;;;15.57;5.72;;;13.90;94.60;;;;;;5024483;28;20112;-70
2023/07/02 04:13:36;;;;;;;16.05;5.72;;;13.90;94.60;;;;;;5025713;28;20034;-70
2023/07/02 04:16:01;;;;;;;15.90;5.97;;;13.80;94.90;;;;;;5022527;28;20131;-70
2023/07/02 04:18:28;;;;;;;15.60;5.97;;;13.90;94.80;;;;;;5029476;28;20041;-70
2023/07/02 04:20:54;;;;;;;14.23;5.60;;;13.80;94.90;;;;;;5013678;28;20030;-70
2023/07/02 04:23:20;;;;;;;15.77;5.38;;;13.80;95.00;;;;;;5004111;28;20036;-71
2023/07/02 04:25:45;;;;;;;15.23;5.95;;;13.90;94.80;;;;;;5017345;28;20108;-70
2023/07/02 04:28:10;;;;;;;15.45;5.65;;;13.80;95.00;;;;;;5021993;28;20025;-66
2023/07/02 04:30:36;;;;;;;14.70;5.43;;;13.80;95.10;;;;;;5016398;28;20490;-68
2023/07/02 04:33:01;;;;;;;15.07;6.50;;;13.90;94.80;;;;;;5018928;28;20025;-66
2023/07/02 04:35:27;;;;;;;16.38;5.82;;;14.00;94.60;;;;;;5020062;28;20063;-67
2023/07/02 04:37:52;;;;;;;16.00;6.20;;;14.00;94.50;;;;;;5030369;28;20083;-66
2023/07/02 04:40:18;;;;;;;18.58;6.47;;;14.00;94.70;;;;;;5021758;28;20413;-66
2023/07/02 04:42:46;;;;;;;16.23;5.93;;;14.00;94.60;;;;;;5022862;28;20391;-65
2023/07/02 04:45:14;;;;;;;14.52;5.60;;;14.00;94.40;;;;;;5022459;28;20022;-65
2023/07/02 04:47:41;;;;;;;16.75;5.75;;;14.00;94.60;;;;;;5024456;28;20099;-65
2023/07/02 04:50:07;;;;;;;17.45;6.20;;;14.10;94.30;;;;;;5025818;28;20057;-66
2023/07/02 04:52:32;;;;;;;18.33;6.68;;;14.10;94.30;;;;;;5025582;28;20051;-65
2023/07/02 04:54:58;;;;;;;18.83;6.57;;;14.10;94.00;;;;;;5033160;28;20441;-65
2023/07/02 04:57:23;;;;;;;16.25;5.72;;;14.20;93.50;;;;;;5040120;28;20025;-66
2023/07/02 04:59:49;;;;;;;17.30;6.28;;;14.20;93.80;;;;;;5029758;28;20033;-65
2023/07/02 05:02:14;;;;;;;15.20;5.95;;;14.20;93.50;;;;;;5008575;28;20116;-66
2023/07/02 05:04:40;;;;;;;18.38;6.80;;;14.30;93.50;;;;;;5031949;28;20089;-68
2023/07/02 05:07:05;;;;;;;13.60;5.70;;;14.30;93.40;;;;;;5028119;28;20052;-67
2023/07/02 05:09:31;;;;;;;19.42;6.60;;;14.40;93.10;;;;;;5022514;28;20048;-67
2023/07/02 05:12:00;;;;;;;13.60;5.70;;;14.40;93.00;;;;;;5031620;28;20426;-67
2023/07/02 05:14:25;;;;;;;19.90;6.03;;;14.50;92.70;;;;;;5019618;28;20037;-68
2023/07/02 05:16:51;;;;;;;17.00;5.68;;;14.50;92.30;;;;;;5012932;28;20446;-68
2023/07/02 05:19:16;;;;;;;18.80;5.85;;;14.60;92.50;;;;;;5017826;28;20040;-67
2023/07/02 05:21:42;;;;;;;15.77;6.35;;;14.60;92.00;;;;;;5018254;28;20610;-67
2023/07/02 05:24:08;;;;;;;16.85;6.63;;;14.60;92.10;;;;;;5021463;28;20033;-67
2023/07/02 05:26:33;;;;;;;15.48;5.50;;;14.60;91.90;;;;;;5022153;28;20041;-68
2023/07/02 05:28:59;;;;;;;15.25;6.47;;;14.70;91.30;;;;;;5022793;28;20045;-67
2023/07/02 05:31:24;;;;;;;19.75;7.10;;;14.70;91.10;;;;;;5017127;28;20322;-69
2023/07/02 05:33:50;;;;;;;20.60;6.72;;;14.80;91.10;;;;;;5023698;28;20121;-66
2023/07/02 05:36:15;;;;;;;20.25;6.72;;;14.90;90.60;;;;;;5006014;28;20352;-72
2023/07/02 05:38:41;;;;;;;19.08;5.93;;;15.00;89.70;;;;;;5022584;28;20105;-65
2023/07/02 05:41:06;;;;;;;17.60;6.00;;;15.00;90.30;;;;;;5032236;28;20128;-67
2023/07/02 05:43:32;;;;;;;20.52;6.43;;;15.00;90.40;;;;;;5029280;28;20030;-67
2023/07/02 05:46:00;;;;;;;18.00;6.78;;;15.10;89.80;;;;;;5023534;28;20429;-66
2023/07/02 05:48:26;;;;;;;20.42;7.15;;;15.10;89.10;;;;;;5032233;28;20078;-66
2023/07/02 05:50:52;;;;;;;18.70;5.97;;;15.10;88.80;;;;;;5024925;28;20384;-67
2023/07/02 05:53:17;;;;;;;13.23;6.07;;;15.20;89.20;;;;;;5024815;28;20025;-67
2023/07/02 05:55:43;;;;;;;20.20;6.43;;;15.20;88.50;;;;;;5028731;28;20033;-67
2023/07/02 05:58:08;;;;;;;24.35;6.82;;;15.30;88.60;;;;;;5026494;28;20081;-70
2023/07/02 06:00:34;;;;;;;18.50;6.78;;;15.40;88.00;;;;;;5024168;28;20140;-67
2023/07/02 06:03:00;;;;;;;22.30;7.07;;;15.40;88.80;;;;;;5030997;28;20047;-70
2023/07/02 06:05:25;;;;;;;19.92;6.10;;;15.40;88.10;;;;;;5026239;28;20037;-68
2023/07/02 06:07:51;;;;;;;18.73;6.50;;;15.60;87.90;;;;;;5018024;28;20390;-67
2023/07/02 06:10:16;;;;;;;15.15;6.30;;;15.70;88.20;;;;;;5027565;28;20083;-66
2023/07/02 06:12:43;;;;;;;22.65;7.32;;;15.80;86.80;;;;;;5020606;28;20140;-67
2023/07/02 06:15:09;;;;;;;19.67;7.13;;;15.80;87.20;;;;;;5027971;28;20390;-67
2023/07/02 06:17:34;;;;;;;18.35;7.28;;;15.90;86.90;;;;;;5021721;28;20017;-66
2023/07/02 06:20:02;;;;;;;17.40;6.95;;;15.90;86.50;;;;;;5024980;28;20842;-67
2023/07/02 06:22:28;;;;;;;25.45;7.90;;;16.00;87.10;;;;;;5028844;28;20331;-67
2023/07/02 06:24:53;;;;;;;19.35;7.30;;;16.10;86.50;;;;;;5024664;28;20060;-68
2023/07/02 06:27:19;;;;;;;19.33;6.45;;;16.10;85.60;;;;;;5026625;28;20037;-68
2023/07/02 06:29:44;;;;;;;27.58;6.80;;;16.10;85.00;;;;;;5024972;28;20030;-68
2023/07/02 06:32:10;;;;;;;23.88;7.20;;;16.30;86.00;;;;;;5022043;28;20049;-70
2023/07/02 06:34:36;;;;;;;23.45;7.00;;;16.30;84.80;;;;;;5024213;28;20037;-68
2023/07/02 06:37:01;;;;;;;20.27;7.35;;;16.20;84.80;;;;;;5020977;28;20030;-71
2023/07/02 06:39:27;;;;;;;22.27;6.90;;;16.40;84.60;;;;;;5021391;28;20072;-69
2023/07/02 06:41:52;;;;;;;14.93;6.00;;;16.30;84.20;;;;;;5028147;28;20037;-71
2023/07/02 06:44:18;;;;;;;23.77;8.05;;;16.40;83.40;;;;;;5020261;28;20125;-68
2023/07/02 06:46:46;;;;;;;21.80;7.38;;;16.50;82.60;;;;;;5011267;28;20414;-69
2023/07/02 06:49:11;;;;;;;25.95;7.00;;;16.50;82.80;;;;;;5026547;28;20024;-68
2023/07/02 06:51:37;;;;;;;21.65;7.43;;;17.00;82.80;;;;;;5005066;28;20108;-72
2023/07/02 06:54:02;;;;;;;19.17;7.05;;;16.80;81.70;;;;;;5024412;28;20106;-68
2023/07/02 06:56:28;;;;;;;21.73;7.50;;;16.80;81.00;;;;;;5024961;28;20300;-71
2023/07/02 06:58:53;;;;;;;20.50;7.75;;;16.80;80.90;;;;;;5020913;28;20112;-70
2023/07/02 07:01:19;;;;;;;22.77;6.97;;;16.90;81.60;;;;;;5022710;28;20112;-69
2023/07/02 07:03:44;;;;;;;19.98;7.40;;;16.90;80.70;;;;;;5027643;28;20040;-67
2023/07/02 07:06:11;;;;;;;15.55;6.22;;;17.00;79.70;;;;;;5021928;28;20403;-68
2023/07/02 07:08:38;;;;;;;20.13;7.50;;;17.10;79.60;;;;;;5022355;28;20037;-66
2023/07/02 07:11:04;;;;;;;19.10;6.85;;;17.30;79.30;;;;;;5023846;28;20402;-64
2023/07/02 07:13:29;;;;;;;19.90;7.25;;;17.50;78.50;;;;;;5030388;28;20025;-65
2023/07/02 07:15:55;;;;;;;20.33;7.03;;;17.70;79.20;;;;;;5015365;28;20136;-65
2023/07/02 07:18:20;;;;;;;22.60;6.70;;;17.50;77.70;;;;;;5033523;28;20033;-66
2023/07/02 07:20:46;;;;;;;15.82;6.63;;;17.50;77.90;;;;;;5023491;28;20041;-67
2023/07/02 07:23:11;;;;;;;22.02;6.95;;;17.30;77.00;;;;;;5024216;28;20104;-67
2023/07/02 07:25:37;;;;;;;19.15;6.75;;;17.30;77.90;;;;;;5022514;28;20426;-68
2023/07/02 07:28:02;;;;;;;16.17;6.65;;;17.20;78.10;;;;;;5022635;28;20033;-64
2023/07/02 07:30:28;;;;;;;17.98;6.57;;;17.10;78.00;;;;;;5014802;28;20099;-66
2023/07/02 07:32:53;;;;;;;18.65;6.25;;;17.10;77.30;;;;;;5025551;28;20029;-65
2023/07/02 07:35:21;;;;;;;18.33;6.63;;;17.00;75.10;;;;;;5021037;28;20021;-65
2023/07/02 07:37:47;;;;;;;17.95;5.65;;;17.20;74.60;;;;;;5024014;28;20401;-66
2023/07/02 07:40:14;;;;;;;16.25;6.00;;;17.50;73.70;;;;;;5019129;28;20091;-66
2023/07/02 07:42:40;;;;;;;28.05;6.80;;;17.60;73.30;;;;;;5022336;28;20105;-66
2023/07/02 07:45:06;;;;;;;15.32;6.15;;;17.80;73.70;;;;;;5026695;28;20369;-67
2023/07/02 07:47:31;;;;;;;16.27;6.25;;;17.90;72.50;;;;;;5021753;28;20029;-65
2023/07/02 07:49:57;;;;;;;22.48;6.18;;;17.80;72.50;;;;;;5028530;28;20499;-67
2023/07/02 07:52:22;;;;;;;17.17;5.85;;;17.90;72.30;;;;;;5022751;28;20043;-68
2023/07/02 07:54:48;;;;;;;20.42;6.07;;;17.90;72.10;;;;;;5007338;28;20350;-67
2023/07/02 07:57:14;;;;;;;18.65;6.47;;;18.00;69.50;;;;;;5024950;28;21355;-65
2023/07/02 07:59:40;;;;;;;21.60;6.57;;;18.20;68.70;;;;;;5022563;28;20099;-70
2023/07/02 08:02:05;;;;;;;19.30;6.55;;;18.10;70.10;;;;;;5021735;28;20129;-66
2023/07/02 08:04:31;;;;;;;13.90;5.00;;;18.00;69.30;;;;;;5022457;28;20037;-67
2023/07/02 08:06:56;;;;;;;14.82;5.65;;;18.20;65.70;;;;;;5014064;28;20033;-65
2023/07/02 08:09:23;;;;;;;13.50;5.00;;;17.80;66.20;;;;;;5025238;28;20027;-66
2023/07/02 08:11:49;;;;;;;15.73;5.78;;;18.10;68.40;;;;;;5005750;28;20049;-65
2023/07/02 08:14:16;;;;;;;17.05;5.40;;;18.10;66.00;;;;;;5022875;28;20040;-68
2023/07/02 08:16:41;;;;;;;17.73;5.68;;;18.00;66.90;;;;;;5023354;28;20025;-67
2023/07/02 08:19:07;;;;;;;13.32;4.90;;;17.90;66.30;;;;;;5026479;28;20044;-66
2023/07/02 08:21:32;;;;;;;16.50;4.68;;;18.00;66.30;;;;;;5022489;28;20095;-67
2023/07/02 08:23:58;;;;;;;17.33;5.03;;;17.70;63.90;;;;;;5029273;28;20062;-69
2023/07/02 08:26:23;;;;;;;16.30;5.10;;;18.00;65.60;;;;;;5028497;28;20366;-66
2023/07/02 08:28:49;;;;;;;11.52;4.28;;;18.20;66.00;;;;;;5026302;28;20382;-67
2023/07/02 08:31:14;;;;;;;13.43;5.65;;;17.90;64.80;;;;;;5024707;28;20092;-65
2023/07/02 08:33:40;;;;;;;16.42;5.47;;;18.00;65.60;;;;;;5022942;28;20033;-68
2023/07/02 08:36:06;;;;;;;16.85;6.13;;;18.10;65.30;;;;;;5027593;28;20033;-70
2023/07/02 08:38:31;;;;;;;14.90;5.30;;;18.40;65.70;;;;;;5025501;28;20533;-68
2023/07/02 08:40:57;;;;;;;15.90;5.22;;;18.30;64.80;;;;;;5023894;28;20042;-69
2023/07/02 08:43:25;;;;;;;14.02;5.07;;;18.60;65.30;;;;;;5006986;28;20021;-67
2023/07/02 08:45:51;;;;;;;14.60;5.07;;;18.30;64.90;;;;;;5032204;28;20033;-70
2023/07/02 08:48:22;;;;;;;16.98;5.43;;;18.60;64.50;;;;;;5023931;28;20037;-67
2023/07/02 08:50:48;;;;;;;11.82;4.82;;;18.90;64.30;;;;;;5022061;28;20042;-66
2023/07/02 08:53:14;;;;;;;12.25;4.50;;;19.30;63.60;;;;;;5016741;28;20108;-70
2023/07/02 08:55:40;;;;;;;13.80;4.90;;;19.30;60.70;;;;;;5026788;28;20037;-66
2023/07/02 08:58:05;;;;;;;11.65;5.00;;;19.00;61.30;;;;;;5026080;28;20381;-69
2023/07/02 09:00:35;;;;;;;12.65;5.43;;;19.00;59.60;;;;;;5026605;28;20041;-69
2023/07/02 09:03:11;;;;;;;13.05;4.65;;;19.30;59.50;;;;;;5032397;28;20036;-67
2023/07/02 09:05:56;;;;;;;16.42;4.68;;;19.00;60.50;;;;;;5016582;28;20033;-67
2023/07/02 09:08:25;;;;;;;13.77;5.05;;;18.80;61.00;;;;;;5021406;28;20048;-66
2023/07/02 09:10:50;;;;;;;13.32;4.20;;;18.60;60.70;;;;;;5025487;28;20458;-67
2023/07/02 09:13:16;;;;;;;18.90;4.80;;;18.30;60.50;;;;;;5030404;28;20073;-67
2023/07/02 09:15:42;;;;;;;14.90;4.78;;;18.00;61.50;;;;;;5020993;28;20410;-67
2023/07/02 09:18:26;;;;;;;10.98;3.75;;;18.00;63.50;;;;;;5024751;28;20033;-67
2023/07/02 09:20:54;;;;;;;12.52;4.57;;;17.70;63.00;;;;;;5028459;28;20367;-67
2023/07/02 09:23:20;;;;;;;10.55;4.60;;;17.80;63.80;;;;;;5024038;28;20025;-67
2023/07/02 09:25:46;;;;;;;13.90;4.22;;;17.90;63.90;;;;;;5020410;28;20026;-70
2023/07/02 09:28:21;;;;;;;11.57;3.88;;;18.00;64.20;;;;;;5022774;28;20021;-67
2023/07/02 09:30:51;;;;;;;10.98;3.65;;;18.30;63.50;;;;;;5021487;28;20411;-67
2023/07/02 09:33:17;;;;;;;13.05;3.85;;;18.70;61.10;;;;;;5023692;28;20125;-66
2023/07/02 09:35:43;;;;;;;11.93;3.97;;;18.80;61.30;;;;;;5029548;28;20075;-68
2023/07/02 09:38:09;;;;;;;11.93;3.90;;;19.20;61.00;;;;;;5024012;28;20021;-69
2023/07/02 09:40:44;;;;;;;9.98;3.67;;;18.90;60.40;;;;;;5026562;28;20028;-67
2023/07/02 09:43:10;;;;;;;15.80;4.20;;;18.70;60.20;;;;;;5021998;28;20037;-68
2023/07/02 09:45:36;;;;;;;10.77;3.47;;;18.80;60.00;;;;;;5025113;28;20021;-67
2023/07/02 09:48:02;;;;;;;9.27;3.53;;;19.30;57.70;;;;;;5017651;28;20028;-66
2023/07/02 09:50:29;;;;;;;17.42;4.38;;;19.70;58.50;;;;;;5019705;28;20059;-67
2023/07/02 09:52:54;;;;;;;9.75;3.75;;;19.50;59.20;;;;;;5025076;28;20105;-69
2023/07/02 09:55:21;;;;;;;9.98;3.38;;;19.30;57.10;;;;;;5026829;28;20453;-68
2023/07/02 09:57:47;;;;;;;10.40;3.20;;;19.20;57.10;;;;;;5020048;28;20045;-66
2023/07/02 10:00:14;;;;;;;12.18;3.42;;;18.90;57.90;;;;;;5025401;28;20145;-67
2023/07/02 10:02:39;;;;;;;9.02;3.28;;;19.00;57.70;;;;;;5022698;28;20073;-67
2023/07/02 10:05:05;;;;;;;10.50;3.47;;;19.20;55.60;;;;;;5025324;28;20025;-66
2023/07/02 10:07:34;;;;;;;10.35;3.30;;;19.50;56.30;;;;;;5021206;28;20434;-68
2023/07/02 10:10:00;;;;;;;9.45;3.80;;;18.90;56.60;;;;;;5022467;28;20038;-67
2023/07/02 10:12:28;;;;;;;10.43;3.90;;;18.60;58.80;;;;;;5030849;28;20055;-68
2023/07/02 10:14:55;;;;;;;10.13;3.78;;;18.50;59.10;;;;;;5025983;28;20097;-66
2023/07/02 10:17:25;;;;;;;9.20;3.85;;;18.50;59.30;;;;;;5019407;28;20022;-66
2023/07/02 10:19:54;;;;;;;12.63;4.13;;;18.90;58.80;;;;;;5020929;28;20119;-68
2023/07/02 10:22:20;;;;;;;10.73;3.85;;;19.10;58.20;;;;;;5027542;28;20349;-67
2023/07/02 10:25:00;;;;;;;10.85;4.32;;;19.20;58.10;;;;;;5017671;28;20022;-69
2023/07/02 10:27:55;;;;;;;9.73;3.67;;;19.80;55.90;;;;;;5029280;28;20036;-68
2023/07/02 10:30:39;;;;;;;10.73;4.22;;;20.20;56.80;;;;;;5001034;28;20083;-69
2023/07/02 10:33:12;;;;;;;14.02;3.78;;;20.60;55.10;;;;;;5019797;28;20050;-66
2023/07/02 10:35:41;;;;;;;12.77;4.38;;;20.90;56.80;;;;;;5016931;28;20037;-66
2023/07/02 10:38:07;;;;;;;11.65;4.35;;;21.20;57.30;;;;;;5023830;28;20186;-67
2023/07/02 10:40:33;;;;;;;9.85;3.92;;;21.40;57.30;;;;;;5024152;28;20556;-65
2023/07/02 10:42:59;;;;;;;12.23;4.70;;;21.60;58.00;;;;;;5028886;28;20030;-65
2023/07/02 10:45:34;;;;;;;11.85;4.38;;;21.20;57.70;;;;;;5022668;28;20026;-66
2023/07/02 10:48:03;;;;;;;11.63;3.78;;;21.10;55.60;;;;;;5023451;28;20077;-65
2023/07/02 10:50:30;;;;;;;9.63;3.90;;;20.90;54.60;;;;;;5020436;28;20048;-66
2023/07/02 10:52:55;;;;;;;11.35;4.05;;;20.50;54.60;;;;;;5016016;28;20458;-66
2023/07/02 10:55:23;;;;;;;12.55;4.25;;;20.20;55.10;;;;;;5017831;28;20017;-68
2023/07/02 10:57:50;;;;;;;11.90;4.25;;;20.10;55.10;;;;;;5019336;28;20495;-66
2023/07/02 11:00:17;;;;;;;12.73;4.07;;;20.10;55.60;;;;;;5024443;28;20125;-65
2023/07/02 11:02:43;;;;;;;11.73;4.38;;;20.90;56.00;;;;;;5030540;28;20025;-65
2023/07/02 11:05:12;;;;;;;12.55;3.38;;;21.70;53.00;;;;;;5015596;28;20116;-67
2023/07/02 11:07:39;;;;;;;15.05;3.63;;;21.40;52.60;;;;;;5017041;28;20025;-66
2023/07/02 11:10:05;;;;;;;8.98;3.33;;;20.90;53.50;;;;;;5020961;28;20033;-66
2023/07/02 11:12:31;;;;;;;9.85;3.45;;;21.30;53.40;;;;;;5020571;28;20210;-66
2023/07/02 11:15:14;;;;;;;8.82;3.10;;;21.10;51.60;;;;;;5017782;28;20022;-65
2023/07/02 11:17:41;;;;;;;10.50;2.83;;;21.50;49.80;;;;;;5022437;28;20418;-66
2023/07/02 11:20:10;;;;;;;6.70;3.13;;;22.10;50.10;;;;;;5023433;28;20033;-67
2023/07/02 11:22:37;;;;;;;9.75;3.25;;;21.80;49.80;;;;;;5035182;28;20075;-67
2023/07/02 11:25:13;;;;;;;10.68;3.35;;;21.30;51.50;;;;;;5023115;28;20426;-67
2023/07/02 11:27:39;;;;;;;6.80;2.80;;;21.00;51.70;;;;;;5013201;28;20018;-66
2023/07/02 11:30:05;;;;;;;7.35;2.33;;;20.90;50.00;;;;;;5018250;28;20034;-65
2023/07/02 11:32:31;;;;;;;11.57;2.95;;;21.50;49.60;;;;;;5019236;28;20041;-66
2023/07/02 11:34:56;;;;;;;12.52;3.25;;;21.20;50.20;;;;;;5033030;28;20029;-66
2023/07/02 11:37:22;;;;;;;10.48;2.97;;;20.60;51.80;;;;;;5030397;28;20017;-65
2023/07/02 11:39:48;;;;;;;8.48;2.80;;;20.10;53.20;;;;;;5026890;28;20045;-65
2023/07/02 11:42:13;;;;;;;8.23;2.70;;;19.80;54.00;;;;;;5023123;28;20445;-65
2023/07/02 11:44:40;;;;;;;8.40;2.80;;;20.30;53.30;;;;;;5019586;28;20037;-66
2023/07/02 11:47:05;;;;;;;7.15;2.58;;;21.10;51.30;;;;;;5021259;28;20194;-66
2023/07/02 11:49:31;;;;;;;7.38;2.45;;;21.30;51.40;;;;;;5019042;28;20499;-66
2023/07/02 11:51:56;;;;;;;8.75;2.97;;;21.30;52.50;;;;;;5034424;28;20147;-67
2023/07/02 11:54:22;;;;;;;10.18;3.00;;;21.50;50.40;;;;;;5020552;28;20021;-65
2023/07/02 11:56:48;;;;;;;7.03;2.60;;;21.70;50.80;;;;;;5024888;28;20026;-66
2023/07/02 11:59:13;;;;;;;6.15;2.88;;;21.90;49.40;;;;;;5014719;28;20052;-68
2023/07/02 12:01:39;;;;;;;8.30;2.78;;;22.20;50.60;;;;;;5018217;28;20032;-66
2023/07/02 12:04:05;;;;;;;7.75;2.38;;;22.00;50.10;;;;;;5021476;28;20077;-67
2023/07/02 12:06:31;;;;;;;9.13;2.55;;;21.80;50.50;;;;;;5020748;28;20456;-66
2023/07/02 12:08:57;;;;;;;11.48;2.97;;;22.40;49.80;;;;;;5032246;28;20037;-67
2023/07/02 12:11:22;;;;;;;6.63;2.28;;;21.80;49.70;;;;;;5022666;28;20045;-67
2023/07/02 12:13:47;;;;;;;6.28;2.38;;;21.00;51.00;;;;;;5024914;28;20085;-66
2023/07/02 12:16:13;;;;;;;9.63;2.42;;;21.40;50.80;;;;;;5025661;28;20128;-66
2023/07/02 12:18:38;;;;;;;6.72;2.20;;;21.30;49.00;;;;;;5020369;28;20461;-69
2023/07/02 12:21:04;;;;;;;6.35;2.05;;;21.10;49.70;;;;;;5033186;28;20434;-65
2023/07/02 12:23:30;;;;;;;7.13;2.22;;;21.20;50.90;;;;;;5019918;28;20045;-69
2023/07/02 12:25:55;;;;;;;10.07;2.72;;;21.90;49.10;;;;;;5013278;28;20041;-69
2023/07/02 12:28:20;;;;;;;9.45;2.60;;;21.70;49.50;;;;;;5019579;28;20163;-69
2023/07/02 12:30:46;;;;;;;7.65;2.88;;;22.10;49.90;;;;;;5014020;28;20137;-70
2023/07/02 12:33:11;;;;;;;7.72;2.47;;;22.10;50.10;;;;;;5016529;28;20557;-69